Time;durP1;ratioP1;P1;durP2;ratioP2;P2;SDS_P1;SDS_P2;PMS_P1;PMS_P2;Temp;Humidity;BMP_temperature;BMP_pressure;BME280_temperature;BME280_humidity;BME280_pressure;Samples;Min_cycle;Max_cycle;Signal;HPM_P1;HPM_P2
2021/12/05 00:22:26;;;;;;;5.93;2.20;;;4.50;93.20;;;;;;4998926;28;20828;-75
2021/12/05 00:24:56;;;;;;;5.40;2.20;;;4.50;93.00;;;;;;4965961;28;21018;-74
2021/12/05 00:27:28;;;;;;;8.43;2.30;;;4.50;93.20;;;;;;4963346;28;20450;-73
2021/12/05 01:02:16;;;;;;;7.93;2.30;;;4.70;91.20;;;;;;4954071;28;20458;-73
2021/12/05 01:07:42;;;;;;;3.20;1.50;;;4.70;91.70;;;;;;4983058;28;20446;-75
2021/12/05 01:10:27;;;;;;;6.00;2.00;;;4.70;90.80;;;;;;4941293;28;20975;-73
2021/12/05 01:15:22;;;;;;;3.80;1.70;;;4.80;90.00;;;;;;4945659;28;20920;-74
2021/12/05 01:18:06;;;;;;;2.40;1.97;;;4.80;89.50;;;;;;4938209;28;20512;-75
2021/12/05 01:20:37;;;;;;;7.27;1.53;;;4.80;88.70;;;;;;4939863;28;20434;-74
2021/12/05 01:23:11;;;;;;;4.40;1.93;;;4.80;87.40;;;;;;4938036;28;20581;-75
2021/12/05 01:33:36;;;;;;;3.77;1.73;;;4.90;87.30;;;;;;4964257;28;20470;-74
2021/12/05 01:36:12;;;;;;;4.67;1.50;;;4.90;87.70;;;;;;4958783;28;20422;-73
2021/12/05 01:58:03;;;;;;;4.37;1.60;;;4.70;89.60;;;;;;5036482;28;20438;-75
2021/12/05 02:41:23;;;;;;;4.47;1.90;;;4.30;89.90;;;;;;4957089;28;20520;-73
2021/12/05 02:43:59;;;;;;;5.10;1.93;;;4.40;90.00;;;;;;4961784;28;20430;-73
2021/12/05 02:46:26;;;;;;;7.60;2.17;;;4.40;89.90;;;;;;4963687;28;20423;-74
2021/12/05 02:48:57;;;;;;;6.23;1.90;;;4.40;89.60;;;;;;4982293;28;20435;-73
2021/12/05 02:51:26;;;;;;;2.87;1.90;;;4.50;89.50;;;;;;5007451;28;20532;-73
2021/12/05 02:54:05;;;;;;;7.40;1.50;;;4.50;89.30;;;;;;4963104;28;20474;-74
2021/12/05 02:56:37;;;;;;;5.03;2.17;;;4.50;89.70;;;;;;4965106;28;20513;-75
2021/12/05 02:59:25;;;;;;;3.87;1.80;;;4.50;89.90;;;;;;4965473;28;20477;-73
2021/12/05 03:02:16;;;;;;;2.37;1.67;;;4.50;90.10;;;;;;4971206;28;20496;-72
2021/12/05 03:04:44;;;;;;;4.13;1.90;;;4.50;90.20;;;;;;4971499;28;20427;-72
2021/12/05 03:07:11;;;;;;;3.07;1.70;;;4.50;90.20;;;;;;4966126;28;20446;-73
2021/12/05 03:09:39;;;;;;;2.80;1.53;;;4.50;90.50;;;;;;4966410;28;20446;-72
2021/12/05 03:12:08;;;;;;;5.43;1.70;;;4.50;90.40;;;;;;4990661;28;20421;-73
2021/12/05 03:14:33;;;;;;;4.63;2.03;;;4.50;90.40;;;;;;4992749;28;20419;-73
2021/12/05 03:16:59;;;;;;;4.20;1.73;;;4.50;90.40;;;;;;4972639;28;20545;-73
2021/12/05 03:19:25;;;;;;;3.73;2.00;;;4.50;90.50;;;;;;4963931;28;20897;-72
2021/12/05 03:21:53;;;;;;;2.23;1.60;;;4.40;90.70;;;;;;4971860;28;20194;-73
2021/12/05 03:24:23;;;;;;;7.10;2.30;;;4.40;90.90;;;;;;4970189;28;20565;-73
2021/12/05 03:26:52;;;;;;;2.80;1.93;;;4.50;90.80;;;;;;4985889;28;20429;-72
2021/12/05 03:29:20;;;;;;;4.47;1.80;;;4.40;90.80;;;;;;4986344;28;20996;-73
2021/12/05 03:31:46;;;;;;;4.40;1.90;;;4.40;90.70;;;;;;4962825;28;20587;-72
2021/12/05 03:34:16;;;;;;;3.53;1.63;;;4.40;90.50;;;;;;4978719;28;20493;-72
2021/12/05 03:36:45;;;;;;;3.40;1.90;;;4.40;90.40;;;;;;4969234;28;20434;-72
2021/12/05 03:39:12;;;;;;;4.97;1.90;;;4.40;90.40;;;;;;4966363;28;20830;-73
2021/12/05 03:41:39;;;;;;;2.73;1.87;;;4.40;90.30;;;;;;4967195;28;20422;-72
2021/12/05 03:44:08;;;;;;;7.00;1.60;;;4.30;90.40;;;;;;4966249;28;20434;-71
2021/12/05 03:46:35;;;;;;;3.50;1.80;;;4.30;90.50;;;;;;4967123;28;20872;-72
2021/12/05 03:49:05;;;;;;;3.73;1.90;;;4.30;90.70;;;;;;4973958;28;20458;-72
2021/12/05 03:51:35;;;;;;;5.43;1.57;;;4.30;90.70;;;;;;4974423;28;20437;-71
2021/12/05 03:54:01;;;;;;;3.47;1.60;;;4.20;91.00;;;;;;4973733;28;20513;-72
2021/12/05 03:56:27;;;;;;;2.60;1.43;;;4.10;91.10;;;;;;4973363;28;20411;-72
2021/12/05 03:58:54;;;;;;;6.40;1.80;;;4.10;91.20;;;;;;4962667;28;20426;-73
2021/12/05 04:01:24;;;;;;;5.03;1.70;;;4.10;91.10;;;;;;4962941;28;20414;-74
2021/12/05 04:03:50;;;;;;;4.30;1.97;;;4.00;91.10;;;;;;4970929;28;20407;-72
2021/12/05 04:06:18;;;;;;;4.97;1.80;;;4.00;91.30;;;;;;4970532;28;20806;-73
2021/12/05 04:08:44;;;;;;;5.07;1.90;;;4.00;91.30;;;;;;4967485;28;20527;-72
2021/12/05 04:11:21;;;;;;;4.53;1.60;;;4.00;91.30;;;;;;4970533;28;20604;-73
2021/12/05 04:13:47;;;;;;;4.13;1.80;;;4.00;91.40;;;;;;4970361;28;20478;-73
2021/12/05 04:16:15;;;;;;;2.13;1.60;;;3.90;91.50;;;;;;4964177;28;20432;-73
2021/12/05 04:18:41;;;;;;;8.00;1.80;;;4.00;91.60;;;;;;4960481;28;20208;-72
2021/12/05 04:21:07;;;;;;;6.53;1.90;;;4.00;91.60;;;;;;4979752;28;21084;-73
2021/12/05 04:23:33;;;;;;;2.43;1.70;;;4.00;91.40;;;;;;4970122;28;20434;-73
2021/12/05 04:26:00;;;;;;;4.63;1.93;;;4.00;91.40;;;;;;4963300;28;20518;-73
2021/12/05 04:28:26;;;;;;;3.83;1.87;;;4.00;91.50;;;;;;4972341;28;20446;-74
2021/12/05 04:30:52;;;;;;;4.20;2.27;;;4.00;91.70;;;;;;4972473;28;20456;-74
2021/12/05 04:33:18;;;;;;;3.63;1.57;;;4.00;91.80;;;;;;4971662;28;20545;-73
2021/12/05 04:35:44;;;;;;;3.20;1.60;;;4.00;91.80;;;;;;4976013;28;20463;-73
2021/12/05 04:38:10;;;;;;;4.83;1.60;;;4.00;91.90;;;;;;4969694;28;20477;-74
2021/12/05 04:40:36;;;;;;;4.70;2.17;;;4.10;91.80;;;;;;4963354;28;20478;-72
2021/12/05 04:43:05;;;;;;;5.03;1.63;;;4.10;91.70;;;;;;4970281;28;20426;-73
2021/12/05 04:45:33;;;;;;;5.77;1.80;;;4.10;91.70;;;;;;4966924;28;20439;-74
2021/12/05 04:48:00;;;;;;;3.90;1.50;;;4.10;91.70;;;;;;4966583;28;20442;-72
2021/12/05 04:50:27;;;;;;;3.00;1.80;;;4.10;91.90;;;;;;4967749;28;20192;-73
2021/12/05 04:52:54;;;;;;;5.23;1.67;;;4.10;91.60;;;;;;4967921;28;20493;-74
2021/12/05 04:55:20;;;;;;;3.43;1.80;;;4.20;91.50;;;;;;4964903;28;20797;-74
2021/12/05 04:57:46;;;;;;;8.43;1.70;;;4.10;91.50;;;;;;4962082;28;20534;-74
2021/12/05 05:00:26;;;;;;;4.10;1.52;;;4.10;91.60;;;;;;4974822;28;20443;-73
2021/12/05 05:02:54;;;;;;;4.63;1.90;;;4.10;91.60;;;;;;4963519;28;20179;-74
2021/12/05 05:05:21;;;;;;;4.50;1.60;;;4.10;91.60;;;;;;4960067;28;20428;-74
2021/12/05 05:07:48;;;;;;;3.37;1.60;;;4.00;91.80;;;;;;4960075;28;20455;-74
2021/12/05 05:10:17;;;;;;;7.40;1.63;;;4.00;92.00;;;;;;4966261;28;20451;-72
2021/12/05 05:12:43;;;;;;;10.43;1.92;;;3.90;92.20;;;;;;4965335;28;20557;-72
2021/12/05 05:15:11;;;;;;;1.63;1.50;;;3.80;92.70;;;;;;4959439;28;20200;-73
2021/12/05 05:17:38;;;;;;;5.38;1.80;;;3.70;92.90;;;;;;4969363;28;20481;-73
2021/12/05 05:20:15;;;;;;;3.40;1.63;;;3.60;93.20;;;;;;4963891;28;20199;-74
2021/12/05 05:23:00;;;;;;;3.80;1.77;;;3.50;93.60;;;;;;4964776;28;20439;-73
2021/12/05 05:30:52;;;;;;;2.97;1.70;;;3.50;93.70;;;;;;4990113;28;20222;-73
2021/12/05 05:49:20;;;;;;;5.07;1.92;;;3.30;93.60;;;;;;4966625;28;20435;-73
2021/12/05 05:51:46;;;;;;;2.50;1.70;;;3.30;93.70;;;;;;4969688;28;20191;-73
2021/12/05 05:54:12;;;;;;;5.20;1.80;;;3.30;93.60;;;;;;4963963;28;21060;-73
2021/12/05 05:56:41;;;;;;;3.05;1.60;;;3.30;93.70;;;;;;4982717;28;20299;-74
2021/12/05 05:59:16;;;;;;;4.53;1.70;;;3.30;93.80;;;;;;4961320;28;20171;-75
2021/12/05 06:03:20;;;;;;;2.50;1.53;;;3.20;93.90;;;;;;4968927;28;20871;-74
2021/12/05 06:04:30;;;;;;;4.67;1.70;;;3.20;94.00;;;;;;4965801;28;20988;-72
2021/12/05 06:06:55;;;;;;;3.23;1.67;;;3.30;93.90;;;;;;4963228;28;20529;-74
2021/12/05 06:09:21;;;;;;;2.80;1.60;;;3.30;93.80;;;;;;4963794;28;20264;-73
2021/12/05 06:11:47;;;;;;;1.97;1.40;;;3.20;93.80;;;;;;4965769;28;20207;-73
2021/12/05 06:14:13;;;;;;;3.43;1.60;;;3.20;93.70;;;;;;4968437;28;20199;-73
2021/12/05 06:16:38;;;;;;;2.33;1.40;;;3.30;93.60;;;;;;4964984;28;20179;-73
2021/12/05 06:19:04;;;;;;;3.27;1.50;;;3.20;93.60;;;;;;4962297;28;20195;-73
2021/12/05 06:21:30;;;;;;;3.20;1.70;;;3.30;93.70;;;;;;4974378;28;20444;-73
2021/12/05 06:23:55;;;;;;;5.10;1.67;;;3.20;93.70;;;;;;4961402;28;20232;-73
2021/12/05 06:26:23;;;;;;;3.73;1.60;;;3.20;93.70;;;;;;4960557;28;20188;-73
2021/12/05 06:29:09;;;;;;;3.08;1.83;;;3.20;93.80;;;;;;4969609;28;20263;-74
2021/12/05 06:37:25;;;;;;;3.17;1.60;;;3.10;94.30;;;;;;5018263;28;20256;-74
2021/12/05 06:40:03;;;;;;;7.85;2.00;;;3.10;94.40;;;;;;4960736;28;20191;-73
2021/12/05 06:47:58;;;;;;;2.00;1.60;;;3.00;94.40;;;;;;4960187;28;20228;-75
2021/12/05 06:50:23;;;;;;;5.97;1.40;;;3.00;94.40;;;;;;4989583;28;20717;-73
2021/12/05 06:52:49;;;;;;;6.57;1.60;;;3.00;94.40;;;;;;4978182;28;20272;-73
2021/12/05 06:55:16;;;;;;;4.30;1.60;;;3.00;94.30;;;;;;4958987;28;20200;-75
2021/12/05 06:57:42;;;;;;;6.03;1.83;;;3.00;94.20;;;;;;5005718;28;20234;-75
2021/12/05 07:00:13;;;;;;;2.00;1.45;;;3.00;94.20;;;;;;4957069;28;20188;-74
2021/12/05 07:02:39;;;;;;;2.55;1.25;;;3.00;94.20;;;;;;4960864;28;20191;-75
2021/12/05 07:07:42;;;;;;;1.70;1.30;;;3.00;94.20;;;;;;4960304;28;20462;-73
2021/12/05 07:10:12;;;;;;;2.78;1.50;;;3.00;94.20;;;;;;4964754;28;20252;-73
2021/12/05 07:23:28;;;;;;;4.20;1.73;;;3.10;94.30;;;;;;4964097;28;20200;-74
2021/12/05 07:26:04;;;;;;;3.13;1.30;;;3.10;94.20;;;;;;4954788;28;20783;-74
2021/12/05 07:42:23;;;;;;;3.40;1.40;;;3.40;93.20;;;;;;4985882;28;20182;-78
2021/12/05 07:44:53;;;;;;;3.53;1.70;;;3.50;92.90;;;;;;4993689;28;20685;-77
2021/12/05 07:47:22;;;;;;;3.50;1.50;;;3.50;92.90;;;;;;4967982;28;20223;-78
2021/12/05 07:49:48;;;;;;;3.80;1.97;;;3.50;92.80;;;;;;4974092;28;20236;-77
2021/12/05 07:52:19;;;;;;;5.90;1.70;;;3.60;92.90;;;;;;4988740;28;20506;-76
2021/12/05 07:54:50;;;;;;;3.00;1.55;;;3.60;93.00;;;;;;4979679;28;20191;-78
2021/12/05 07:57:24;;;;;;;4.47;2.35;;;3.60;92.90;;;;;;4968722;28;20291;-78
2021/12/05 08:16:17;;;;;;;4.10;2.03;;;3.40;93.40;;;;;;4970355;28;20441;-77
2021/12/05 08:18:44;;;;;;;5.30;2.00;;;3.50;93.40;;;;;;4974084;28;20444;-76
2021/12/05 08:21:10;;;;;;;2.80;2.20;;;3.50;93.40;;;;;;4990478;28;20198;-78
2021/12/05 08:23:37;;;;;;;4.63;2.40;;;3.50;93.30;;;;;;5020188;28;20557;-79
2021/12/05 08:26:14;;;;;;;7.47;2.40;;;3.50;93.30;;;;;;5051390;28;20191;-77
2021/12/05 08:31:29;;;;;;;3.67;1.73;;;3.60;93.00;;;;;;5000007;28;20659;-76
2021/12/05 08:41:58;;;;;;;3.47;1.98;;;3.60;93.10;;;;;;4976423;28;20185;-79
2021/12/05 10:14:51;;;;;;;4.80;2.63;;;5.60;85.20;;;;;;4977627;28;20619;-74
2021/12/05 10:17:37;;;;;;;4.50;1.73;;;5.70;85.00;;;;;;4959836;28;20502;-74
2021/12/05 10:26:32;;;;;;;2.33;1.50;;;5.80;83.00;;;;;;4967791;28;20547;-74
2021/12/05 10:37:10;;;;;;;2.00;1.27;;;6.50;79.20;;;;;;4959401;28;20599;-75
2021/12/05 10:39:37;;;;;;;4.10;1.27;;;6.40;79.60;;;;;;5003542;28;20459;-74
2021/12/05 10:42:43;;;;;;;4.33;1.70;;;6.30;80.60;;;;;;4990815;28;20426;-74
2021/12/05 10:45:31;;;;;;;2.10;1.23;;;6.30;80.80;;;;;;4962780;28;20425;-74
2021/12/05 10:47:58;;;;;;;1.50;1.30;;;6.00;79.90;;;;;;4960814;28;20458;-75
2021/12/05 10:50:39;;;;;;;2.97;1.43;;;6.00;81.10;;;;;;4966364;28;20419;-74
2021/12/05 10:53:38;;;;;;;1.73;1.20;;;6.10;81.40;;;;;;4970449;28;20537;-74
2021/12/05 10:56:22;;;;;;;2.90;1.27;;;6.30;79.20;;;;;;4979814;28;20469;-76
2021/12/05 10:59:08;;;;;;;5.20;1.40;;;6.30;78.60;;;;;;4953317;28;20538;-74
2021/12/05 11:01:39;;;;;;;3.07;1.27;;;6.20;78.90;;;;;;4958022;28;20510;-74
2021/12/05 11:04:05;;;;;;;3.77;1.30;;;6.20;78.90;;;;;;4961247;28;20642;-76
2021/12/05 11:06:56;;;;;;;2.20;1.10;;;6.30;79.30;;;;;;4958143;28;21032;-74
2021/12/05 11:09:25;;;;;;;2.13;1.30;;;6.30;78.10;;;;;;4961792;28;20542;-75
2021/12/05 11:12:03;;;;;;;3.30;1.33;;;6.30;78.40;;;;;;4984417;28;20446;-74
2021/12/05 11:14:35;;;;;;;1.20;1.00;;;6.30;78.30;;;;;;4963750;28;20591;-75
2021/12/05 11:17:28;;;;;;;2.20;1.10;;;6.20;78.40;;;;;;4990737;28;20521;-75
2021/12/05 11:19:58;;;;;;;3.03;1.37;;;6.20;78.60;;;;;;4971475;28;20441;-75
2021/12/05 11:22:34;;;;;;;1.97;1.70;;;6.30;78.60;;;;;;4969964;28;20427;-75
2021/12/05 11:25:02;;;;;;;2.90;1.33;;;6.30;78.40;;;;;;4962986;28;20513;-75
2021/12/05 11:27:34;;;;;;;1.17;1.00;;;6.10;77.80;;;;;;4962243;28;20450;-75
2021/12/05 11:30:17;;;;;;;2.83;1.60;;;6.10;78.70;;;;;;4970741;28;20451;-75
2021/12/05 11:33:00;;;;;;;3.17;1.40;;;6.10;78.30;;;;;;4969258;28;20498;-75
2021/12/05 11:35:26;;;;;;;2.83;1.13;;;6.00;77.60;;;;;;4965947;28;20803;-74
2021/12/05 11:38:00;;;;;;;2.00;1.03;;;5.90;78.30;;;;;;4962036;28;20526;-75
2021/12/05 11:40:30;;;;;;;3.80;1.50;;;5.90;78.30;;;;;;4957540;28;20246;-75
2021/12/05 11:43:02;;;;;;;1.70;1.23;;;5.90;78.60;;;;;;4979674;28;20973;-75
2021/12/05 11:45:30;;;;;;;1.97;1.50;;;5.90;78.70;;;;;;5008589;28;20482;-74
2021/12/05 11:47:58;;;;;;;4.03;1.50;;;5.90;78.40;;;;;;4971447;28;20483;-75
2021/12/05 11:50:36;;;;;;;3.40;1.30;;;5.90;79.00;;;;;;4960433;28;20430;-74
2021/12/05 11:53:03;;;;;;;4.80;1.30;;;6.00;79.20;;;;;;4958022;28;20957;-75
2021/12/05 11:55:31;;;;;;;2.30;1.30;;;5.90;79.50;;;;;;4963284;28;20427;-74
2021/12/05 11:57:58;;;;;;;6.23;1.80;;;5.80;80.00;;;;;;4969321;28;20442;-74
2021/12/05 12:00:26;;;;;;;3.00;1.60;;;5.90;80.50;;;;;;4964837;28;20446;-75
2021/12/05 12:02:52;;;;;;;4.50;1.50;;;6.00;80.50;;;;;;4963780;28;20423;-74
2021/12/05 12:05:33;;;;;;;3.47;1.53;;;6.10;79.90;;;;;;4962359;28;20442;-74
2021/12/05 12:08:07;;;;;;;3.47;1.50;;;6.10;79.70;;;;;;4962770;28;20442;-74
2021/12/05 12:10:39;;;;;;;5.57;1.70;;;6.20;79.90;;;;;;4967352;28;20792;-74
2021/12/05 12:13:10;;;;;;;7.70;1.63;;;6.20;79.60;;;;;;4967892;28;20726;-74
2021/12/05 12:15:37;;;;;;;5.80;1.80;;;6.10;79.90;;;;;;4971122;28;20448;-76
2021/12/05 12:18:16;;;;;;;3.17;1.63;;;6.20;80.50;;;;;;4963536;28;20846;-75
2021/12/05 12:20:45;;;;;;;4.23;1.80;;;6.30;81.40;;;;;;4968827;28;20430;-75
2021/12/05 12:23:12;;;;;;;2.03;1.60;;;6.30;81.50;;;;;;4966526;28;20443;-75
2021/12/05 12:25:40;;;;;;;3.30;1.87;;;6.40;81.10;;;;;;4975028;28;20523;-75
2021/12/05 12:28:07;;;;;;;1.57;1.30;;;6.40;80.00;;;;;;4971589;28;20510;-75
2021/12/05 12:30:39;;;;;;;3.70;1.53;;;6.50;78.70;;;;;;4974435;28;20415;-74
2021/12/05 12:33:13;;;;;;;1.70;1.50;;;6.40;79.20;;;;;;4995553;28;20471;-74
2021/12/05 12:35:39;;;;;;;1.60;1.40;;;6.50;79.70;;;;;;4969958;28;20476;-74
2021/12/05 12:38:08;;;;;;;5.40;2.10;;;6.40;79.00;;;;;;4966992;28;21163;-74
2021/12/05 12:40:51;;;;;;;4.83;1.83;;;6.70;78.90;;;;;;4966733;28;20458;-74
2021/12/05 12:43:39;;;;;;;1.90;1.63;;;6.90;77.80;;;;;;5007547;28;20433;-74
2021/12/05 12:46:28;;;;;;;6.43;1.93;;;7.00;77.30;;;;;;4960613;28;20430;-75
2021/12/05 12:49:20;;;;;;;1.90;1.10;;;7.10;77.60;;;;;;4962376;28;20443;-73
2021/12/05 12:52:11;;;;;;;2.27;1.00;;;6.90;75.50;;;;;;4965175;28;20843;-75
2021/12/05 12:54:49;;;;;;;3.10;1.40;;;6.90;76.10;;;;;;4965331;28;20535;-75
2021/12/05 12:57:20;;;;;;;4.30;1.30;;;6.90;75.70;;;;;;4966583;28;20572;-75
2021/12/05 13:00:02;;;;;;;2.30;1.33;;;6.80;74.90;;;;;;4980361;28;20434;-75
2021/12/05 13:10:56;;;;;;;3.07;1.30;;;6.50;76.50;;;;;;4968040;28;20453;-75
2021/12/05 13:13:28;;;;;;;3.03;0.97;;;6.40;76.70;;;;;;4971254;28;20574;-74
2021/12/05 13:16:00;;;;;;;1.70;1.20;;;6.50;76.70;;;;;;5027439;28;20427;-74
2021/12/05 13:18:32;;;;;;;3.93;1.30;;;6.60;76.80;;;;;;4967068;28;20558;-73
2021/12/05 13:21:31;;;;;;;3.80;1.40;;;6.50;76.80;;;;;;4972120;28;20438;-75
2021/12/05 13:23:57;;;;;;;1.53;1.07;;;6.50;77.00;;;;;;4967339;28;20474;-74
2021/12/05 13:26:43;;;;;;;1.70;0.97;;;6.50;76.80;;;;;;4969085;28;20463;-73
2021/12/05 13:29:14;;;;;;;2.90;1.07;;;6.70;76.70;;;;;;4958551;28;20457;-73
2021/12/05 13:32:03;;;;;;;1.00;1.00;;;6.70;75.10;;;;;;4967191;28;20427;-74
2021/12/05 13:34:34;;;;;;;1.97;1.30;;;6.70;75.50;;;;;;4947279;28;21015;-75
2021/12/05 13:37:05;;;;;;;2.73;1.00;;;6.70;76.10;;;;;;4960524;28;20451;-74
2021/12/05 13:39:47;;;;;;;3.23;1.40;;;6.80;75.40;;;;;;4960881;28;20436;-74
2021/12/05 13:42:24;;;;;;;1.33;1.10;;;6.80;75.40;;;;;;4963670;28;20424;-75
2021/12/05 13:45:12;;;;;;;3.03;1.63;;;6.70;74.90;;;;;;4964416;28;20415;-75
2021/12/05 13:47:51;;;;;;;1.13;0.90;;;6.60;75.50;;;;;;4957540;28;20976;-75
2021/12/05 13:50:29;;;;;;;1.23;0.83;;;6.70;75.70;;;;;;4959823;28;20415;-74
2021/12/05 13:53:05;;;;;;;2.20;0.90;;;6.80;74.80;;;;;;4955758;28;20528;-74
2021/12/05 13:55:53;;;;;;;2.30;1.20;;;6.70;75.10;;;;;;5024984;28;20767;-75
2021/12/05 13:58:32;;;;;;;2.07;1.30;;;6.60;75.10;;;;;;4968566;28;20457;-73
2021/12/05 14:01:19;;;;;;;2.33;1.03;;;6.50;75.80;;;;;;4972695;28;20422;-75
2021/12/05 14:04:08;;;;;;;2.20;1.30;;;6.50;76.10;;;;;;4968863;28;20423;-75
2021/12/05 14:06:49;;;;;;;3.70;1.33;;;6.50;76.10;;;;;;4968961;28;20426;-74
2021/12/05 14:09:17;;;;;;;2.53;1.27;;;6.50;76.50;;;;;;4983272;28;20503;-75
2021/12/05 14:11:51;;;;;;;2.23;0.97;;;6.70;75.50;;;;;;4960947;28;20439;-75
2021/12/05 14:14:24;;;;;;;2.20;1.27;;;6.70;75.20;;;;;;4963275;28;20477;-74
2021/12/05 14:16:53;;;;;;;2.37;1.30;;;6.60;75.80;;;;;;4964873;28;20847;-75
2021/12/05 14:19:23;;;;;;;1.40;1.00;;;6.50;76.70;;;;;;4962587;28;20419;-75
2021/12/05 14:21:51;;;;;;;2.20;1.33;;;6.50;76.70;;;;;;4966257;28;20423;-76
2021/12/05 14:24:20;;;;;;;1.80;1.10;;;6.50;76.80;;;;;;4962269;28;20447;-75
2021/12/05 14:26:54;;;;;;;2.87;2.00;;;6.60;77.40;;;;;;4974786;28;20439;-74
2021/12/05 14:29:23;;;;;;;2.40;1.70;;;6.70;77.70;;;;;;4981036;28;20443;-73
2021/12/05 14:32:06;;;;;;;2.73;1.50;;;6.90;77.70;;;;;;4961095;28;20434;-75
2021/12/05 14:34:32;;;;;;;1.80;1.50;;;7.00;77.60;;;;;;4959577;28;20499;-75
2021/12/05 14:37:03;;;;;;;2.03;1.40;;;7.10;77.10;;;;;;4967730;28;20485;-76
2021/12/05 14:39:51;;;;;;;2.57;1.50;;;7.20;76.20;;;;;;4966770;28;20445;-73
2021/12/05 14:42:22;;;;;;;2.07;1.60;;;7.20;76.40;;;;;;4964149;28;20444;-75
2021/12/05 14:44:51;;;;;;;3.70;1.90;;;7.20;76.50;;;;;;4966649;28;20473;-75
2021/12/05 14:47:21;;;;;;;4.63;2.13;;;7.10;76.40;;;;;;4963316;28;20518;-75
2021/12/05 14:49:54;;;;;;;3.70;1.87;;;7.00;76.80;;;;;;4968605;28;20601;-76
2021/12/05 14:52:24;;;;;;;3.40;1.97;;;7.00;77.30;;;;;;4964056;28;20466;-75
2021/12/05 14:54:51;;;;;;;3.17;2.10;;;6.90;77.60;;;;;;4966553;28;20905;-75
2021/12/05 14:57:19;;;;;;;4.53;2.03;;;6.80;78.40;;;;;;4967698;28;20461;-75
2021/12/05 14:59:50;;;;;;;3.10;2.40;;;6.70;78.70;;;;;;4966461;28;20809;-73
2021/12/05 15:02:18;;;;;;;6.07;2.40;;;6.70;79.50;;;;;;5036702;28;20912;-75
2021/12/05 15:04:50;;;;;;;3.30;1.93;;;6.70;79.90;;;;;;4994745;28;20433;-72
2021/12/05 15:07:21;;;;;;;2.97;1.70;;;6.60;80.00;;;;;;4962635;28;20515;-75
2021/12/05 15:09:50;;;;;;;5.27;2.40;;;6.40;82.10;;;;;;4960600;28;20834;-75
2021/12/05 15:12:20;;;;;;;2.30;1.87;;;6.20;83.30;;;;;;4961470;28;20437;-74
2021/12/05 15:14:49;;;;;;;2.60;1.77;;;6.10;83.80;;;;;;4962338;28;20922;-73
2021/12/05 15:17:17;;;;;;;2.60;1.80;;;6.10;84.40;;;;;;4967188;28;20486;-75
2021/12/05 15:19:47;;;;;;;3.87;2.07;;;6.00;84.60;;;;;;4965236;28;20436;-75
2021/12/05 15:22:13;;;;;;;3.10;1.83;;;6.00;84.90;;;;;;4965421;28;20466;-75
2021/12/05 15:24:48;;;;;;;2.97;2.00;;;6.00;85.30;;;;;;4981455;28;20802;-74
2021/12/05 15:27:16;;;;;;;9.00;2.80;;;6.00;85.30;;;;;;5009814;28;20450;-74
2021/12/05 15:29:47;;;;;;;3.27;2.20;;;6.00;85.90;;;;;;4961384;28;20438;-74
2021/12/05 15:32:22;;;;;;;5.50;2.57;;;6.00;86.00;;;;;;4987438;28;20521;-73
2021/12/05 15:34:54;;;;;;;4.83;2.37;;;5.90;86.20;;;;;;4959462;28;20478;-74
2021/12/05 15:37:21;;;;;;;4.20;2.20;;;5.90;86.50;;;;;;4963575;28;20458;-73
2021/12/05 15:39:48;;;;;;;5.37;2.40;;;5.90;86.30;;;;;;4960189;28;20457;-74
2021/12/05 15:42:29;;;;;;;3.23;2.30;;;5.90;86.50;;;;;;5020409;28;20434;-73
2021/12/05 15:44:57;;;;;;;4.60;2.70;;;5.80;86.60;;;;;;4953824;28;20422;-74
2021/12/05 15:47:31;;;;;;;8.03;3.13;;;5.90;86.80;;;;;;4959101;28;20451;-74
2021/12/05 15:49:59;;;;;;;3.90;2.73;;;5.80;86.80;;;;;;4968372;28;20487;-74
2021/12/05 15:52:38;;;;;;;5.07;2.87;;;5.70;87.00;;;;;;4968452;28;20487;-75
2021/12/05 15:55:17;;;;;;;5.83;3.60;;;5.70;87.30;;;;;;4959827;28;20441;-75
2021/12/05 15:57:46;;;;;;;6.50;3.80;;;5.70;87.40;;;;;;4960411;28;20440;-75
2021/12/05 16:00:35;;;;;;;5.27;3.47;;;5.60;87.80;;;;;;4965173;28;20423;-74
2021/12/05 16:03:07;;;;;;;5.87;3.33;;;5.60;88.10;;;;;;4963241;28;20889;-75
2021/12/05 16:05:35;;;;;;;7.83;4.00;;;5.50;88.10;;;;;;4960380;28;20900;-74
2021/12/05 16:08:05;;;;;;;6.60;3.53;;;5.40;88.40;;;;;;4966902;28;20434;-75
2021/12/05 16:10:33;;;;;;;9.80;4.00;;;5.40;88.70;;;;;;4958812;28;20864;-75
2021/12/05 16:13:06;;;;;;;8.60;3.57;;;5.40;89.00;;;;;;4967581;28;21295;-74
2021/12/05 16:15:32;;;;;;;7.50;3.90;;;5.40;89.00;;;;;;4969460;28;20419;-74
2021/12/05 16:18:41;;;;;;;7.10;4.30;;;5.40;89.00;;;;;;4969528;28;20511;-75
2021/12/05 16:24:29;;;;;;;6.07;3.37;;;5.40;88.70;;;;;;4960184;28;20414;-75
2021/12/05 16:27:03;;;;;;;4.80;3.27;;;5.40;88.70;;;;;;4988697;28;20450;-75
2021/12/05 16:29:29;;;;;;;4.63;3.20;;;5.40;88.70;;;;;;4976226;28;20436;-74
2021/12/05 16:31:58;;;;;;;4.20;3.13;;;5.40;88.60;;;;;;5004826;28;20796;-75
2021/12/05 16:34:30;;;;;;;5.37;3.33;;;5.40;88.70;;;;;;4969569;28;20222;-75
2021/12/05 16:36:59;;;;;;;9.83;4.00;;;5.40;89.00;;;;;;4961191;28;20802;-75
2021/12/05 16:39:27;;;;;;;5.23;3.37;;;5.40;89.20;;;;;;4968909;28;20803;-75
2021/12/05 16:42:03;;;;;;;6.00;3.90;;;5.40;89.00;;;;;;4966687;28;20419;-75
2021/12/05 16:44:33;;;;;;;9.17;4.57;;;5.50;88.60;;;;;;4964442;28;20805;-74
2021/12/05 16:47:03;;;;;;;6.30;3.73;;;5.50;88.60;;;;;;4963073;28;20543;-74
2021/12/05 16:49:36;;;;;;;8.73;4.70;;;5.50;88.40;;;;;;4960004;28;20471;-73
2021/12/05 16:52:24;;;;;;;8.67;5.33;;;5.50;88.40;;;;;;5017409;28;20822;-75
2021/12/05 16:55:01;;;;;;;9.03;4.70;;;5.50;88.30;;;;;;5024684;28;20470;-75
2021/12/05 16:57:34;;;;;;;9.63;6.20;;;5.40;88.30;;;;;;4966128;28;20438;-76
2021/12/05 17:00:09;;;;;;;8.70;4.90;;;5.40;88.30;;;;;;4963134;28;20418;-75
2021/12/05 17:02:53;;;;;;;9.20;5.77;;;5.30;88.40;;;;;;4967697;28;20495;-75
2021/12/05 17:05:26;;;;;;;11.47;6.20;;;5.30;88.70;;;;;;4961665;28;20938;-74
2021/12/05 17:08:18;;;;;;;12.83;6.60;;;5.30;89.00;;;;;;4968170;28;20443;-75
2021/12/05 17:10:46;;;;;;;5.90;3.23;;;5.30;89.00;;;;;;4961668;28;20447;-75
2021/12/05 17:13:33;;;;;;;6.57;3.70;;;5.30;88.40;;;;;;4970040;28;20586;-73
2021/12/05 17:16:04;;;;;;;4.77;3.13;;;5.20;88.30;;;;;;4966449;28;20452;-75
2021/12/05 17:18:38;;;;;;;6.03;4.00;;;5.20;88.40;;;;;;5058506;28;20437;-74
2021/12/05 17:21:22;;;;;;;6.90;4.27;;;5.10;88.60;;;;;;5042184;28;20426;-73
2021/12/05 17:23:48;;;;;;;10.40;5.67;;;5.00;89.00;;;;;;5028535;28;20463;-72
2021/12/05 17:26:21;;;;;;;11.60;6.13;;;5.00;89.50;;;;;;4988647;28;20418;-75
2021/12/05 17:28:55;;;;;;;16.50;7.00;;;5.00;89.60;;;;;;5002687;28;20207;-74
2021/12/05 17:31:29;;;;;;;11.50;6.87;;;5.00;90.00;;;;;;4960621;28;20430;-74
2021/12/05 17:33:58;;;;;;;9.20;5.67;;;5.00;90.10;;;;;;4981035;28;20456;-73
2021/12/05 17:36:28;;;;;;;12.50;6.27;;;4.90;89.90;;;;;;4965687;28;20525;-74
2021/12/05 17:39:11;;;;;;;8.47;5.80;;;4.80;90.00;;;;;;4971459;28;20454;-75
2021/12/05 17:41:39;;;;;;;7.37;5.40;;;4.70;90.00;;;;;;4979049;28;20422;-74
2021/12/05 17:44:06;;;;;;;9.17;6.40;;;4.70;90.30;;;;;;4973590;28;20427;-74
2021/12/05 17:46:34;;;;;;;10.03;6.43;;;4.60;90.50;;;;;;4970453;28;20431;-73
2021/12/05 17:49:04;;;;;;;11.50;6.50;;;4.60;90.60;;;;;;4971473;28;20913;-73
2021/12/05 17:51:37;;;;;;;12.33;7.30;;;4.50;90.80;;;;;;4999452;28;20510;-75
2021/12/05 17:54:04;;;;;;;11.90;7.33;;;4.40;91.00;;;;;;5036503;28;20554;-75
2021/12/05 17:56:48;;;;;;;13.30;7.05;;;4.40;91.20;;;;;;5011081;28;20828;-74
2021/12/05 17:59:36;;;;;;;10.17;6.70;;;4.40;91.40;;;;;;4995362;28;20222;-74
2021/12/05 18:04:50;;;;;;;10.50;6.57;;;4.20;92.00;;;;;;4996737;28;20593;-73
2021/12/05 18:07:17;;;;;;;10.25;5.75;;;4.10;92.00;;;;;;5004648;28;20446;-73
2021/12/05 18:09:44;;;;;;;9.45;5.75;;;4.10;92.00;;;;;;4978552;28;20238;-75
2021/12/05 18:12:18;;;;;;;10.10;5.15;;;4.00;92.10;;;;;;5002722;28;20179;-73
2021/12/05 18:14:44;;;;;;;9.33;5.87;;;3.90;92.20;;;;;;4990860;28;20229;-74
2021/12/05 18:17:10;;;;;;;12.77;7.03;;;3.90;92.30;;;;;;5007347;28;20438;-76
2021/12/05 18:19:37;;;;;;;16.13;7.60;;;3.90;92.50;;;;;;5028792;28;20658;-75
2021/12/05 18:22:04;;;;;;;14.93;8.85;;;3.80;92.70;;;;;;5025857;28;20422;-74
2021/12/05 18:24:31;;;;;;;12.55;8.13;;;3.80;92.80;;;;;;5030527;28;20182;-74
2021/12/05 18:26:57;;;;;;;13.57;9.05;;;3.90;92.90;;;;;;5013294;28;20212;-75
2021/12/05 18:29:23;;;;;;;15.73;9.17;;;3.90;92.90;;;;;;5004952;28;20188;-75
2021/12/05 18:31:50;;;;;;;14.23;8.77;;;3.90;92.80;;;;;;5015903;28;20454;-74
2021/12/05 18:34:23;;;;;;;9.65;6.72;;;3.80;92.80;;;;;;5025290;28;20813;-73
2021/12/05 18:36:49;;;;;;;14.50;8.55;;;3.80;93.10;;;;;;4969101;28;20187;-75
2021/12/05 18:39:22;;;;;;;13.27;7.57;;;3.80;93.40;;;;;;5004766;28;20180;-74
2021/12/05 18:41:49;;;;;;;14.93;8.30;;;3.90;93.50;;;;;;4969222;28;20186;-73
2021/12/05 18:44:19;;;;;;;16.27;8.53;;;3.90;93.40;;;;;;4970400;28;20433;-74
2021/12/05 18:46:46;;;;;;;16.30;9.97;;;4.00;93.20;;;;;;5039758;28;20429;-73
2021/12/05 18:49:12;;;;;;;16.48;9.15;;;4.00;92.90;;;;;;5067574;28;20460;-75
2021/12/05 18:51:38;;;;;;;18.47;9.93;;;4.10;92.70;;;;;;5013612;28;20223;-74
2021/12/05 18:54:04;;;;;;;15.37;9.00;;;4.10;92.40;;;;;;4999199;28;20548;-75